Time;durP1;ratioP1;P1;durP2;ratioP2;P2;SDS_P1;SDS_P2;PMS_P1;PMS_P2;Temp;Humidity;BMP_temperature;BMP_pressure;BME280_temperature;BME280_humidity;BME280_pressure;Samples;Min_cycle;Max_cycle;Signal;HPM_P1;HPM_P2
2022/06/03 00:00:10;;;;;;;5.55;2.88;;;;;;;8.97;100.00;101344.44;5028660;28;20120;-84
2022/06/03 00:03:11;;;;;;;7.60;2.38;;;;;;;9.03;100.00;101349.22;5017414;28;20116;-83
2022/06/03 00:05:59;;;;;;;6.10;2.63;;;;;;;9.02;100.00;101353.75;5017133;28;20042;-83
2022/06/03 00:08:58;;;;;;;8.50;2.80;;;;;;;9.03;100.00;101352.75;5008243;28;20029;-83
2022/06/03 00:12:05;;;;;;;14.73;3.45;;;;;;;9.10;100.00;101346.75;4997712;28;21902;-82
2022/06/03 00:14:59;;;;;;;5.65;2.45;;;;;;;9.05;100.00;101333.84;5015653;28;20126;-84
2022/06/03 00:17:25;;;;;;;12.15;3.00;;;;;;;9.17;100.00;101348.69;5022213;28;20029;-84
2022/06/03 00:19:56;;;;;;;6.30;2.03;;;;;;;9.18;100.00;101349.53;5019823;28;20402;-82
2022/06/03 00:22:51;;;;;;;6.18;2.50;;;;;;;9.17;100.00;101347.84;5016502;28;20119;-82
2022/06/03 00:25:41;;;;;;;8.65;3.72;;;;;;;9.21;100.00;101352.78;4999454;28;20044;-82
2022/06/03 00:28:35;;;;;;;5.05;2.85;;;;;;;9.24;100.00;101346.25;5021122;28;20535;-82
2022/06/03 00:31:13;;;;;;;6.05;2.33;;;;;;;9.24;100.00;101355.16;5027313;28;20068;-83
2022/06/03 00:34:14;;;;;;;7.18;2.72;;;;;;;9.25;100.00;101351.44;5009914;28;20083;-83
2022/06/03 00:37:11;;;;;;;11.43;3.67;;;;;;;9.22;100.00;101343.72;5023573;28;20132;-83
2022/06/03 00:40:14;;;;;;;9.02;2.75;;;;;;;9.24;100.00;101349.78;5026445;28;20537;-82
2022/06/03 00:42:58;;;;;;;12.18;2.72;;;;;;;9.13;100.00;101333.91;5019044;28;20093;-82
2022/06/03 00:45:30;;;;;;;4.97;2.70;;;;;;;9.17;100.00;101346.00;5010188;28;20038;-81
2022/06/03 00:48:15;;;;;;;7.55;3.10;;;;;;;9.17;100.00;101353.22;5029833;28;20064;-83
2022/06/03 00:51:06;;;;;;;7.13;3.45;;;;;;;9.20;100.00;101352.91;5020236;28;20037;-82
2022/06/03 00:54:05;;;;;;;7.50;3.80;;;;;;;9.20;100.00;101351.06;5027648;28;20042;-82
2022/06/03 00:56:46;;;;;;;9.20;3.17;;;;;;;9.22;100.00;101350.94;5010222;28;20521;-82
2022/06/03 00:59:37;;;;;;;6.00;2.88;;;;;;;9.21;100.00;101342.03;5028370;28;20041;-82
2022/06/03 01:02:33;;;;;;;9.48;3.30;;;;;;;9.22;100.00;101342.88;5017054;28;20025;-82
2022/06/03 01:05:09;;;;;;;6.07;3.05;;;;;;;9.10;100.00;101327.97;5013985;28;20099;-83
2022/06/03 01:07:59;;;;;;;7.35;2.97;;;;;;;9.21;100.00;101349.25;5010119;28;20490;-83
2022/06/03 01:10:44;;;;;;;15.40;3.67;;;;;;;9.18;100.00;101344.16;5005766;28;20470;-83
2022/06/03 01:13:22;;;;;;;7.13;4.15;;;;;;;9.13;100.00;101338.41;5023261;28;20056;-83
2022/06/03 01:16:24;;;;;;;11.80;3.05;;;;;;;9.04;100.00;101329.44;4993344;28;20498;-82
2022/06/03 01:19:14;;;;;;;11.73;3.10;;;;;;;9.03;100.00;101343.88;5022157;28;20034;-83
2022/06/03 01:22:09;;;;;;;4.60;2.65;;;;;;;8.95;100.00;101330.38;5019141;28;20056;-83
2022/06/03 01:24:49;;;;;;;8.60;3.20;;;;;;;9.03;100.00;101338.50;4994762;28;20044;-82
2022/06/03 01:27:33;;;;;;;10.70;2.83;;;;;;;9.02;100.00;101337.66;5027696;28;20072;-82
2022/06/03 01:30:24;;;;;;;8.93;3.25;;;;;;;9.04;100.00;101340.16;5030573;28;20037;-83
2022/06/03 01:33:11;;;;;;;9.95;2.88;;;;;;;9.00;100.00;101347.69;5008169;28;20044;-82
2022/06/03 01:36:15;;;;;;;4.75;2.90;;;;;;;9.04;100.00;101348.22;5012969;28;20029;-83
2022/06/03 01:39:00;;;;;;;3.60;1.50;;;;;;;9.00;100.00;101352.22;5005344;28;20060;-84
2022/06/03 01:42:01;;;;;;;8.18;2.67;;;;;;;9.00;100.00;101347.69;5010478;28;20130;-84
2022/06/03 01:44:27;;;;;;;7.28;2.40;;;;;;;9.00;100.00;101353.06;5026628;28;20037;-83
2022/06/03 01:46:59;;;;;;;7.22;2.42;;;;;;;8.98;100.00;101359.56;5027462;28;20045;-83
2022/06/03 01:49:32;;;;;;;6.82;2.50;;;;;;;8.95;100.00;101357.19;5025192;28;20045;-83
2022/06/03 01:52:16;;;;;;;7.03;2.75;;;;;;;8.86;100.00;101347.34;5000886;28;20060;-84
2022/06/03 01:55:16;;;;;;;7.38;2.75;;;;;;;8.79;100.00;101347.13;5024332;28;20384;-84
2022/06/03 01:58:15;;;;;;;7.30;2.83;;;;;;;8.77;100.00;101354.47;5010867;28;20092;-83
2022/06/03 02:00:55;;;;;;;8.35;2.60;;;;;;;8.72;100.00;101351.38;5017053;28;20041;-83
2022/06/03 02:03:30;;;;;;;8.88;2.85;;;;;;;8.57;100.00;101335.81;5020625;28;20059;-81
2022/06/03 02:06:38;;;;;;;9.18;3.05;;;;;;;8.57;100.00;101346.53;5016420;28;20633;-84
2022/06/03 02:09:11;;;;;;;8.95;2.25;;;;;;;8.18;100.00;101312.78;5048817;28;20099;-84
2022/06/03 02:12:07;;;;;;;8.38;2.47;;;;;;;8.28;100.00;101360.00;5019417;28;20029;-83
2022/06/03 02:14:54;;;;;;;7.25;2.95;;;;;;;8.09;100.00;101363.56;5020553;28;20143;-83
2022/06/03 02:17:57;;;;;;;5.68;2.83;;;;;;;7.91;100.00;101358.13;5004146;28;20475;-82
2022/06/03 02:20:38;;;;;;;7.55;3.22;;;;;;;7.77;100.00;101360.38;4998097;28;20247;-83
2022/06/03 02:23:45;;;;;;;4.60;1.70;;;;;;;7.72;100.00;101358.13;5002595;28;20033;-84
2022/06/03 02:26:36;;;;;;;5.53;2.60;;;;;;;7.63;100.00;101359.00;5027327;28;20049;-82
2022/06/03 02:32:24;;;;;;;7.30;2.60;;;;;;;7.35;100.00;101356.16;5036229;28;20041;-83
2022/06/03 02:35:10;;;;;;;6.55;2.40;;;;;;;7.15;100.00;101359.84;5027740;28;20368;-82
2022/06/03 02:38:02;;;;;;;6.82;2.40;;;;;;;6.92;100.00;101365.41;5024080;28;20029;-83
2022/06/03 02:41:10;;;;;;;8.82;3.55;;;;;;;6.80;100.00;101362.00;4990775;28;20480;-83
2022/06/03 02:43:44;;;;;;;5.20;2.70;;;;;;;6.45;100.00;101341.06;5021502;28;20043;-82
2022/06/03 02:46:39;;;;;;;5.28;2.42;;;;;;;6.37;100.00;101348.91;5008097;28;20515;-82
2022/06/03 02:49:33;;;;;;;5.60;2.38;;;;;;;6.47;100.00;101359.63;5021957;28;20029;-83
2022/06/03 02:52:20;;;;;;;12.02;2.63;;;;;;;6.34;100.00;101360.69;5023306;28;20084;-83
2022/06/03 02:54:52;;;;;;;5.55;2.75;;;;;;;6.17;100.00;101358.66;5007140;28;20030;-83
2022/06/03 02:57:24;;;;;;;3.83;2.50;;;;;;;6.07;100.00;101371.94;5007782;28;20149;-83
2022/06/03 03:00:12;;;;;;;5.63;2.53;;;;;;;6.12;100.00;101361.72;5023292;28;20037;-82
2022/06/03 03:03:04;;;;;;;5.20;2.72;;;;;;;6.16;100.00;101363.13;5021297;28;20021;-83
2022/06/03 03:05:48;;;;;;;3.30;2.30;;;;;;;6.12;100.00;101360.88;5007811;28;20732;-83
2022/06/03 03:08:51;;;;;;;5.47;2.60;;;;;;;5.99;100.00;101361.09;5023171;28;20121;-83
2022/06/03 03:11:49;;;;;;;7.13;2.67;;;;;;;5.87;100.00;101359.41;5001205;28;20148;-81
2022/06/03 03:14:40;;;;;;;6.82;2.35;;;;;;;5.67;100.00;101361.97;5030465;28;20446;-82
2022/06/03 03:17:08;;;;;;;3.45;2.47;;;;;;;5.56;100.00;101363.81;5020369;28;20120;-81
2022/06/03 03:19:51;;;;;;;9.23;2.88;;;;;;;5.47;100.00;101363.63;4990059;28;20038;-82
2022/06/03 03:22:26;;;;;;;;;;;;;;;5.44;100.00;101366.53;4991872;28;20091;-82
2022/06/03 03:25:33;;;;;;;3.88;2.30;;;;;;;5.38;100.00;101351.06;5023586;28;19960;-81
2022/06/03 03:28:09;;;;;;;4.82;2.58;;;;;;;5.38;100.00;101360.88;5002651;28;20376;-82
2022/06/03 03:30:46;;;;;;;6.13;2.20;;;;;;;5.44;100.00;101358.53;5026144;28;20088;-82
2022/06/03 03:33:46;;;;;;;7.68;3.00;;;;;;;5.43;100.00;101353.34;5002068;28;20052;-82
2022/06/03 03:36:29;;;;;;;3.40;2.22;;;;;;;5.55;100.00;101357.66;5021678;28;20045;-82
2022/06/03 03:39:30;;;;;;;3.55;2.17;;;;;;;5.66;100.00;101360.28;5027360;28;20047;-81
2022/06/03 03:42:19;;;;;;;10.43;2.38;;;;;;;5.82;100.00;101357.16;5024477;28;20044;-82
2022/06/03 03:44:55;;;;;;;3.90;2.20;;;;;;;5.90;100.00;101368.03;5010350;28;20132;-83
2022/06/03 03:48:11;;;;;;;3.55;2.05;;;;;;;5.83;100.00;101361.50;4990036;28;20033;-82
2022/06/03 03:50:55;;;;;;;3.65;2.05;;;;;;;5.85;100.00;101366.72;5020221;28;20550;-81
2022/06/03 03:53:29;;;;;;;3.22;1.70;;;;;;;5.61;100.00;101335.81;5007369;28;20142;-82
2022/06/03 03:56:13;;;;;;;12.73;2.60;;;;;;;5.85;100.00;101366.72;5003993;28;20037;-82
2022/06/03 03:59:20;;;;;;;3.85;2.33;;;;;;;5.87;100.00;101376.28;5008626;28;20037;-82
2022/06/03 04:02:05;;;;;;;7.03;2.50;;;;;;;5.92;100.00;101373.22;5007323;28;20049;-82
2022/06/03 04:04:43;;;;;;;4.57;2.58;;;;;;;6.06;100.00;101369.41;5024193;28;20046;-83
2022/06/03 04:07:08;;;;;;;5.78;2.47;;;;;;;6.07;100.00;101366.59;4999485;28;20487;-83
2022/06/03 04:09:47;;;;;;;7.03;2.53;;;;;;;6.04;100.00;101361.53;5018607;28;20029;-82
2022/06/03 04:12:16;;;;;;;6.93;2.38;;;;;;;6.26;100.00;101368.53;4985376;28;20039;-82
2022/06/03 04:15:02;;;;;;;6.15;2.80;;;;;;;6.06;100.00;101318.66;5021103;28;20034;-83
2022/06/03 04:17:44;;;;;;;10.30;2.90;;;;;;;6.51;100.00;101371.72;5016230;28;20029;-82
2022/06/03 04:20:31;;;;;;;6.25;2.60;;;;;;;6.58;100.00;101365.72;5000925;28;20051;-82
2022/06/03 04:23:22;;;;;;;7.03;2.47;;;;;;;6.34;100.00;101322.47;5002299;28;20040;-83
2022/06/03 04:26:12;;;;;;;6.93;2.17;;;;;;;6.63;100.00;101377.84;5004740;28;20466;-83
2022/06/03 04:28:43;;;;;;;9.18;2.72;;;;;;;6.64;100.00;101371.50;5014080;28;20036;-83
2022/06/03 04:31:36;;;;;;;3.55;2.47;;;;;;;6.69;100.00;101361.25;5021723;28;20058;-82
2022/06/03 04:34:11;;;;;;;7.30;3.13;;;;;;;6.87;100.00;101372.16;5017302;28;20038;-82
2022/06/03 04:36:37;;;;;;;3.97;2.92;;;;;;;6.96;100.00;101361.50;5018839;28;20037;-83
2022/06/03 04:39:27;;;;;;;6.38;2.42;;;;;;;7.07;100.00;101365.88;5026369;28;20084;-83
2022/06/03 04:42:26;;;;;;;7.93;2.63;;;;;;;7.13;100.00;101345.75;5016886;28;20540;-82
2022/06/03 04:45:01;;;;;;;7.40;2.58;;;;;;;7.42;100.00;101362.66;5024828;28;20046;-81
2022/06/03 04:47:48;;;;;;;6.28;2.88;;;;;;;7.53;100.00;101364.34;5006874;28;20037;-83
2022/06/03 04:50:35;;;;;;;5.90;3.15;;;;;;;7.64;100.00;101356.16;5008670;28;20094;-84
2022/06/03 04:53:38;;;;;;;7.18;3.22;;;;;;;7.66;100.00;101356.88;5021229;28;20053;-82
2022/06/03 04:56:41;;;;;;;7.70;2.97;;;;;;;7.68;100.00;101357.59;5021300;28;20041;-82
2022/06/03 04:59:22;;;;;;;4.75;3.03;;;;;;;7.71;100.00;101359.13;5019157;28;20040;-82
2022/06/03 05:02:09;;;;;;;5.78;2.70;;;;;;;7.80;100.00;101370.81;5020315;28;20072;-83
2022/06/03 05:04:59;;;;;;;5.82;2.67;;;;;;;7.82;100.00;101367.00;5009198;28;20038;-82
2022/06/03 05:07:46;;;;;;;6.72;3.28;;;;;;;7.78;100.00;101352.22;5021683;28;20487;-82
2022/06/03 05:10:30;;;;;;;4.80;3.10;;;;;;;7.96;100.00;101370.22;5041398;28;20033;-82
2022/06/03 05:12:59;;;;;;;7.13;3.08;;;;;;;8.02;100.00;101370.50;5023380;28;20067;-82
2022/06/03 05:15:56;;;;;;;6.70;3.03;;;;;;;8.05;100.00;101361.34;5026969;28;20057;-83
2022/06/03 05:18:46;;;;;;;4.63;2.95;;;;;;;8.19;100.00;101371.59;5022570;28;20083;-82
2022/06/03 05:21:32;;;;;;;9.93;3.17;;;;;;;8.36;100.00;101369.97;5026050;28;20041;-83
2022/06/03 05:24:00;;;;;;;6.70;3.05;;;;;;;8.50;100.00;101366.03;5028593;28;20128;-83
2022/06/03 05:26:47;;;;;;;9.75;3.58;;;;;;;8.68;100.00;101369.63;5026871;28;20029;-82
2022/06/03 05:29:17;;;;;;;6.38;3.20;;;;;;;8.92;100.00;101374.41;5013526;28;20037;-82
2022/06/03 05:32:01;;;;;;;6.78;3.30;;;;;;;9.13;100.00;101381.34;5009960;28;20170;-83
2022/06/03 05:34:49;;;;;;;9.85;3.25;;;;;;;9.28;100.00;101376.31;5013921;28;20030;-82
2022/06/03 05:38:02;;;;;;;10.93;3.13;;;;;;;9.43;100.00;101369.41;5010741;28;20190;-83
2022/06/03 05:40:55;;;;;;;5.88;2.97;;;;;;;9.58;100.00;101375.06;4989729;28;20075;-82
2022/06/03 05:43:37;;;;;;;9.88;3.67;;;;;;;9.64;100.00;101371.78;4992413;28;20074;-83
2022/06/03 05:46:09;;;;;;;5.57;3.22;;;;;;;9.73;100.00;101375.38;4994649;28;21954;-83
2022/06/03 05:48:35;;;;;;;5.53;3.03;;;;;;;9.78;100.00;101373.06;5008620;28;20034;-84
2022/06/03 05:51:35;;;;;;;5.43;3.03;;;;;;;9.88;100.00;101374.66;5030934;28;20034;-84
2022/06/03 05:54:15;;;;;;;3.65;2.67;;;;;;;9.96;100.00;101352.41;5028212;28;20515;-83
2022/06/03 05:56:58;;;;;;;21.45;4.10;;;;;;;10.23;100.00;101355.91;5011536;28;20072;-84
2022/06/03 05:59:39;;;;;;;4.60;3.00;;;;;;;11.13;100.00;101372.47;5011541;28;20124;-84
2022/06/03 06:02:13;;;;;;;3.78;2.70;;;;;;;11.18;100.00;101367.44;5013032;28;20052;-84
2022/06/03 06:05:13;;;;;;;5.95;2.65;;;;;;;11.13;100.00;101372.47;5008709;28;20030;-83
2022/06/03 06:07:50;;;;;;;5.13;2.55;;;;;;;11.06;100.00;101374.13;5016360;28;20080;-84
2022/06/03 06:10:50;;;;;;;6.15;2.80;;;;;;;11.02;100.00;101378.16;5001338;28;20112;-80
2022/06/03 06:13:57;;;;;;;5.85;2.33;;;;;;;11.09;100.00;101376.50;5017738;28;20041;-83
2022/06/03 06:16:32;;;;;;;4.38;2.42;;;;;;;11.08;100.00;101370.25;5011386;28;20072;-83
2022/06/03 06:19:06;;;;;;;6.50;2.45;;;;;;;11.15;100.00;101375.84;5002441;28;20037;-84
2022/06/03 06:21:46;;;;;;;3.17;2.30;;;;;;;11.36;100.00;101378.91;4993582;28;20053;-84
2022/06/03 06:24:38;;;;;;;11.50;4.15;;;;;;;12.57;100.00;101383.59;5005235;28;20099;-82
2022/06/03 06:27:38;;;;;;;6.43;2.78;;;;;;;12.51;100.00;101379.69;5039673;28;20033;-85
2022/06/03 06:30:19;;;;;;;4.10;2.50;;;;;;;12.36;100.00;101381.44;4992752;28;20037;-86
2022/06/03 06:33:22;;;;;;;4.80;2.42;;;;;;;12.29;100.00;101380.44;5019849;28;20128;-84
2022/06/03 06:36:22;;;;;;;7.82;3.15;;;;;;;12.29;100.00;101381.28;5006881;28;20140;-84
2022/06/03 06:38:54;;;;;;;6.97;2.63;;;;;;;12.63;100.00;101385.56;5025158;28;20040;-82
2022/06/03 06:41:37;;;;;;;4.88;2.42;;;;;;;13.14;100.00;101388.72;5024480;28;20037;-83
2022/06/03 06:44:09;;;;;;;4.85;2.35;;;;;;;13.38;100.00;101379.66;5038631;28;20092;-82
2022/06/03 06:46:42;;;;;;;5.95;2.17;;;;;;;13.59;97.24;101384.41;5022919;28;20475;-83
2022/06/03 06:49:20;;;;;;;8.95;2.60;;;;;;;13.55;97.97;101361.47;5025233;28;20037;-84
2022/06/03 06:52:04;;;;;;;3.65;2.30;;;;;;;13.78;97.61;101364.13;4984212;28;20104;-83
2022/06/03 06:55:06;;;;;;;9.10;2.65;;;;;;;14.13;95.18;101371.78;5008192;28;20033;-80
2022/06/03 06:57:47;;;;;;;10.13;1.95;;;;;;;14.20;93.63;101370.84;5038396;28;20039;-82
2022/06/03 07:00:24;;;;;;;5.68;2.70;;;;;;;14.29;91.32;101355.41;5008894;28;20048;-83
2022/06/03 07:02:58;;;;;;;5.03;1.95;;;;;;;14.71;89.62;101362.88;5022743;28;20123;-82
2022/06/03 07:05:43;;;;;;;10.02;3.10;;;;;;;15.00;88.80;101368.41;5028080;28;20116;-83
2022/06/03 07:08:17;;;;;;;11.30;3.22;;;;;;;16.66;79.68;101373.44;5008287;28;20025;-82
2022/06/03 07:10:59;;;;;;;22.13;3.90;;;;;;;15.98;76.91;101364.22;5010722;28;20052;-84
2022/06/03 07:13:47;;;;;;;8.20;3.00;;;;;;;15.97;79.56;101379.66;4993908;28;20036;-82
2022/06/03 07:16:16;;;;;;;64.30;10.02;;;;;;;16.18;75.98;101373.34;5006694;28;20372;-82
2022/06/03 07:21:59;;;;;;;10.82;3.15;;;;;;;16.22;75.54;101390.91;5010775;28;20110;-82
2022/06/03 07:25:02;;;;;;;7.38;3.15;;;;;;;16.24;77.67;101385.28;5009441;28;20747;-82
2022/06/03 07:27:35;;;;;;;35.47;5.88;;;;;;;15.67;76.68;101386.25;5008832;28;20473;-84
2022/06/03 07:30:05;;;;;;;13.70;3.20;;;;;;;15.96;75.39;101382.56;5010264;28;20443;-84
2022/06/03 07:32:39;;;;;;;20.42;3.90;;;;;;;15.79;78.93;101387.41;4986577;28;20068;-84
2022/06/03 07:35:27;;;;;;;8.82;2.80;;;;;;;15.52;77.60;101378.16;5023789;28;20117;-84
2022/06/03 07:38:03;;;;;;;4.97;2.70;;;;;;;17.80;72.22;101386.34;5019400;28;20161;-82
2022/06/03 07:40:28;;;;;;;3.92;2.30;;;;;;;18.09;65.10;101359.78;5008651;28;20065;-82
2022/06/03 07:43:09;;;;;;;5.68;2.80;;;;;;;20.13;59.27;101377.25;5003797;28;20506;-81
2022/06/03 07:45:45;;;;;;;4.97;2.63;;;;;;;23.14;49.83;101393.63;5008833;28;20083;-83
2022/06/03 07:48:26;;;;;;;5.13;2.10;;;;;;;21.97;50.47;101378.09;5016737;28;20041;-82
2022/06/03 07:51:32;;;;;;;4.05;2.38;;;;;;;24.84;43.06;101395.31;5018868;28;20483;-81
2022/06/03 07:54:05;;;;;;;2.50;1.70;;;;;;;23.20;45.11;101393.47;5007006;28;20048;-84
2022/06/03 07:56:33;;;;;;;3.28;1.88;;;;;;;20.97;49.98;101388.56;5007105;28;20164;-83
2022/06/03 07:59:04;;;;;;;3.22;1.80;;;;;;;19.57;52.76;101352.72;5005190;28;20068;-85
2022/06/03 08:01:34;;;;;;;3.08;1.92;;;;;;;19.86;54.51;101390.28;5027192;28;20017;-82
2022/06/03 08:04:00;;;;;;;2.58;2.08;;;;;;;19.24;56.38;101395.50;5009994;28;20100;-82
2022/06/03 08:10:56;;;;;;;4.63;2.00;;;;;;;21.44;51.75;101393.44;5024005;28;20418;-82
2022/06/03 08:12:01;;;;;;;3.53;1.92;;;;;;;23.01;44.59;101397.47;5011705;28;20714;-82
2022/06/03 08:14:27;;;;;;;4.63;1.92;;;;;;;22.65;46.50;101402.19;5019150;28;20053;-82
2022/06/03 08:16:54;;;;;;;8.43;1.60;;;;;;;24.81;39.40;101402.16;5026250;28;20041;-85
2022/06/03 08:19:25;;;;;;;1.98;1.77;;;;;;;26.57;38.48;101401.69;5002618;28;20483;-84
2022/06/03 08:21:59;;;;;;;2.28;1.67;;;;;;;26.89;36.31;101396.03;5007086;28;20095;-81
2022/06/03 08:24:38;;;;;;;3.17;1.70;;;;;;;27.75;34.71;101389.06;5009060;28;20124;-83
2022/06/03 08:27:15;;;;;;;4.68;2.00;;;;;;;28.96;32.86;101393.03;4986540;28;20037;-81
2022/06/03 08:29:42;;;;;;;3.80;2.40;;;;;;;29.47;30.75;101389.97;4997169;28;20049;-81
2022/06/03 08:32:14;;;;;;;6.28;2.50;;;;;;;25.49;35.29;101386.19;5029306;28;20044;-82
2022/06/03 08:34:46;;;;;;;4.20;2.92;;;;;;;22.23;42.61;101390.50;5022913;28;20435;-81
2022/06/03 08:37:17;;;;;;;3.63;1.40;;;;;;;20.25;47.72;101392.91;5006899;28;20095;-83
2022/06/03 08:39:43;;;;;;;3.58;1.60;;;;;;;19.11;51.83;101380.06;5023462;28;20057;-83
2022/06/03 08:42:16;;;;;;;2.20;1.52;;;;;;;18.56;53.20;101389.66;5022667;28;20034;-80
2022/06/03 08:44:55;;;;;;;2.20;1.60;;;;;;;18.05;56.47;101395.78;5027781;28;20061;-83
2022/06/03 08:47:45;;;;;;;2.60;1.88;;;;;;;17.60;57.80;101390.94;5026208;28;20037;-82
2022/06/03 08:50:20;;;;;;;2.75;1.60;;;;;;;17.35;59.55;101398.81;5024377;28;20056;-88
2022/06/03 08:53:22;;;;;;;2.65;1.73;;;;;;;17.12;61.14;101393.72;5005079;28;20029;-83
2022/06/03 08:55:54;;;;;;;2.58;1.90;;;;;;;16.86;61.94;101389.88;5021038;28;20041;-83
2022/06/03 08:58:45;;;;;;;3.30;1.77;;;;;;;16.80;62.59;101384.38;4997330;28;20045;-82
2022/06/03 09:01:10;;;;;;;2.10;1.70;;;;;;;16.91;62.55;101402.84;5026627;28;20038;-82
2022/06/03 09:04:12;;;;;;;2.35;1.70;;;;;;;17.00;62.90;101396.19;5033238;28;20021;-83
2022/06/03 09:06:37;;;;;;;2.33;1.67;;;;;;;18.52;58.51;101394.69;4997400;28;20045;-82
2022/06/03 09:09:17;;;;;;;2.78;2.00;;;;;;;23.55;45.19;101406.22;5015428;28;20033;-81
2022/06/03 09:11:48;;;;;;;3.15;1.88;;;;;;;23.46;42.10;101400.25;5031520;28;20052;-83
2022/06/03 09:14:23;;;;;;;3.35;2.22;;;;;;;21.39;45.28;101391.41;5013453;28;20037;-83
2022/06/03 09:16:52;;;;;;;6.22;3.45;;;;;;;20.24;48.64;101389.31;5030253;28;20022;-84
2022/06/03 09:19:25;;;;;;;3.83;2.22;;;;;;;19.18;51.62;101371.81;5015385;28;20049;-83
2022/06/03 09:21:52;;;;;;;3.15;1.88;;;;;;;18.80;54.60;101386.25;5031993;28;20068;-83
2022/06/03 09:24:22;;;;;;;3.25;2.30;;;;;;;21.80;48.33;101394.38;5029657;28;20033;-84
2022/06/03 09:26:53;;;;;;;2.65;1.92;;;;;;;21.65;47.10;101392.91;5031126;28;20446;-84
2022/06/03 09:29:19;;;;;;;2.35;1.58;;;;;;;20.58;49.40;101395.34;5012187;28;20029;-82
2022/06/03 09:31:49;;;;;;;1.75;1.42;;;;;;;19.87;49.82;101391.13;5015313;28;20033;-82
2022/06/03 09:34:15;;;;;;;2.45;1.92;;;;;;;21.99;45.69;101386.91;4996598;28;20052;-83
2022/06/03 09:36:41;;;;;;;3.67;1.63;;;;;;;25.61;37.58;101397.03;5011840;28;20117;-76
2022/06/03 09:39:10;;;;;;;2.80;2.00;;;;;;;28.36;33.95;101398.44;5024994;28;20048;-75
2022/06/03 09:41:39;;;;;;;3.33;1.88;;;;;;;28.78;33.08;101397.25;5026104;28;20017;-76
2022/06/03 09:44:06;;;;;;;2.15;1.45;;;;;;;27.17;32.68;101403.03;4990024;28;20081;-76
2022/06/03 09:46:33;;;;;;;3.85;2.00;;;;;;;24.83;37.84;101407.41;5020260;28;20044;-75
2022/06/03 09:49:05;;;;;;;3.22;2.05;;;;;;;23.52;41.06;101409.41;5025935;28;20040;-75
2022/06/03 09:54:39;;;;;;;3.70;2.13;;;;;;;21.52;46.01;101407.63;5004557;28;20029;-75
2022/06/03 09:57:22;;;;;;;1.83;1.67;;;;;;;21.41;45.82;101413.06;5020119;28;20029;-76
2022/06/03 10:00:10;;;;;;;3.10;1.90;;;;;;;21.23;46.42;101413.91;5000374;28;20083;-75
2022/06/03 10:02:36;;;;;;;3.55;1.90;;;;;;;21.63;45.88;101405.16;5033693;28;20057;-75
2022/06/03 10:05:04;;;;;;;2.25;1.30;;;;;;;21.48;43.17;101406.41;5011635;28;20471;-75
2022/06/03 10:07:30;;;;;;;2.88;1.50;;;;;;;20.59;43.92;101405.22;5028687;28;20112;-74
2022/06/03 10:12:53;;;;;;;6.18;4.72;;;;;;;19.62;48.96;101416.47;5017764;28;20491;-74
2022/06/03 10:18:09;;;;;;;3.35;2.40;;;;;;;18.57;53.84;101424.84;5027280;28;20120;-75
2022/06/03 10:20:35;;;;;;;3.75;2.55;;;;;;;18.41;54.79;101428.84;5003273;28;20037;-76
2022/06/03 10:23:06;;;;;;;2.33;2.10;;;;;;;18.23;55.43;101418.63;5022551;28;20107;-75
2022/06/03 10:25:32;;;;;;;2.13;1.80;;;;;;;18.08;54.41;101415.25;5024224;28;20033;-82
2022/06/03 10:28:08;;;;;;;2.28;1.80;;;;;;;18.26;53.85;101417.34;4996412;28;20640;-82
2022/06/03 10:30:41;;;;;;;4.03;2.75;;;;;;;18.51;53.96;101425.69;5012312;28;20125;-84
2022/06/03 10:33:18;;;;;;;2.40;1.90;;;;;;;20.79;48.20;101415.91;5029809;28;20047;-83
2022/06/03 10:35:45;;;;;;;2.28;1.70;;;;;;;21.16;45.09;101422.19;4996567;28;20041;-83
2022/06/03 10:38:15;;;;;;;2.47;1.65;;;;;;;20.87;45.03;101423.81;5014132;28;20026;-84
2022/06/03 10:40:44;;;;;;;2.28;1.40;;;;;;;20.15;46.88;101416.09;4997912;28;20034;-84
2022/06/03 10:43:10;;;;;;;3.22;1.70;;;;;;;19.55;48.06;101400.16;5012618;28;20498;-84
2022/06/03 10:45:38;;;;;;;2.47;1.60;;;;;;;19.43;49.05;101429.16;4998241;28;20510;-83
2022/06/03 10:48:24;;;;;;;2.10;1.75;;;;;;;19.36;50.44;101428.38;5000479;28;20468;-83
2022/06/03 10:50:51;;;;;;;2.63;1.60;;;;;;;19.42;50.05;101423.94;5044596;28;20091;-81
2022/06/03 11:01:55;;;;;;;1.75;1.50;;;;;;;25.65;34.14;101411.94;5010653;28;20091;-83
2022/06/03 11:04:33;;;;;;;1.40;1.30;;;;;;;23.16;39.76;101424.38;5030188;28;20115;-82
2022/06/03 11:07:02;;;;;;;1.60;1.33;;;;;;;21.30;44.48;101422.84;4998080;28;20041;-82
2022/06/03 11:09:28;;;;;;;2.70;1.67;;;;;;;20.13;46.30;101420.09;5027392;28;20522;-82
2022/06/03 11:12:02;;;;;;;3.20;1.80;;;;;;;19.18;49.48;101422.78;5010958;28;20390;-82
2022/06/03 11:14:41;;;;;;;2.15;1.40;;;;;;;18.62;50.55;101429.66;4994742;28;20033;-82
2022/06/03 11:17:22;;;;;;;2.63;1.98;;;;;;;17.98;53.62;101434.72;4997399;28;20033;-82
2022/06/03 11:19:53;;;;;;;2.20;1.80;;;;;;;17.96;54.54;101436.81;5004346;28;20083;-83
2022/06/03 11:22:34;;;;;;;2.50;2.05;;;;;;;18.26;54.70;101436.41;5012055;28;20037;-83
2022/06/03 11:25:25;;;;;;;1.85;1.70;;;;;;;19.75;50.37;101421.88;4997970;28;20052;-83
2022/06/03 11:27:50;;;;;;;2.17;1.80;;;;;;;22.27;41.64;101428.16;5008261;28;20080;-83
2022/06/03 11:30:43;;;;;;;2.78;1.33;;;;;;;23.98;38.57;101420.44;5030067;28;20487;-83
2022/06/03 11:33:14;;;;;;;3.17;2.00;;;;;;;21.92;41.69;101428.09;5011534;28;20475;-83
2022/06/03 11:35:44;;;;;;;2.10;1.70;;;;;;;20.60;44.92;101429.56;5027068;28;20029;-83
2022/06/03 11:38:14;;;;;;;2.13;1.60;;;;;;;19.81;47.54;101425.59;5041551;28;20497;-81
2022/06/03 11:40:43;;;;;;;1.90;1.60;;;;;;;18.77;49.16;101424.00;5011320;28;20502;-81
2022/06/03 11:43:17;;;;;;;1.95;1.60;;;;;;;17.81;52.22;101433.47;5029067;28;20152;-83
2022/06/03 11:45:51;;;;;;;2.88;2.00;;;;;;;17.02;55.98;101421.28;5013692;28;20109;-81
2022/06/03 11:48:31;;;;;;;2.13;1.85;;;;;;;16.62;58.22;101441.94;4998016;28;20025;-84
2022/06/03 11:50:58;;;;;;;2.25;1.80;;;;;;;16.37;61.00;101439.66;5011260;28;20076;-83
2022/06/03 11:53:27;;;;;;;2.72;1.60;;;;;;;16.19;61.88;101439.28;5027808;28;20048;-83
2022/06/03 11:55:54;;;;;;;2.10;1.65;;;;;;;16.13;63.72;101445.50;5029327;28;20398;-83
2022/06/03 11:58:58;;;;;;;3.67;2.20;;;;;;;16.15;63.27;101429.88;4994093;28;20034;-85
2022/06/03 12:01:34;;;;;;;3.00;2.38;;;;;;;16.40;63.66;101446.56;5029190;28;20087;-83
2022/06/03 12:04:41;;;;;;;3.63;1.88;;;;;;;16.89;63.06;101442.94;5027657;28;20116;-82
2022/06/03 12:07:29;;;;;;;4.55;2.70;;;;;;;17.62;61.52;101445.09;4987944;28;20097;-82
2022/06/03 12:09:57;;;;;;;4.03;2.13;;;;;;;18.34;57.51;101452.53;5024359;28;20475;-83
2022/06/03 12:15:31;;;;;;;3.22;2.40;;;;;;;20.31;48.54;101436.53;5027966;28;20606;-83
2022/06/03 12:17:58;;;;;;;3.00;2.30;;;;;;;21.36;47.64;101443.00;5006097;28;20041;-84
2022/06/03 12:20:30;;;;;;;2.70;2.20;;;;;;;22.43;42.44;101453.19;5028498;28;20044;-84
2022/06/03 12:23:19;;;;;;;2.60;2.10;;;;;;;22.39;43.76;101453.66;5012428;28;20033;-83
2022/06/03 12:25:57;;;;;;;2.90;1.90;;;;;;;22.57;41.65;101454.59;5012791;28;20037;-84
2022/06/03 12:28:27;;;;;;;2.85;2.15;;;;;;;22.88;42.02;101445.16;5014091;28;20029;-84
2022/06/03 12:30:53;;;;;;;3.08;2.13;;;;;;;22.94;42.51;101452.44;5033218;28;20033;-83
2022/06/03 12:33:33;;;;;;;2.90;2.53;;;;;;;22.66;40.78;101455.09;5016820;28;20064;-83
2022/06/03 12:36:02;;;;;;;4.07;2.60;;;;;;;22.08;42.01;101457.53;4999514;28;20041;-83
2022/06/03 12:38:52;;;;;;;2.45;2.03;;;;;;;21.36;42.84;101452.03;5013081;28;20033;-83
2022/06/03 12:41:46;;;;;;;2.55;2.10;;;;;;;20.46;46.20;101447.13;5029973;28;20567;-83
2022/06/03 12:44:35;;;;;;;3.30;2.38;;;;;;;19.85;47.75;101456.03;5031170;28;20112;-83
2022/06/03 12:47:26;;;;;;;2.17;1.67;;;;;;;19.48;48.19;101451.19;5011457;28;20041;-83
2022/06/03 12:50:03;;;;;;;3.28;2.10;;;;;;;19.48;49.67;101456.63;5015848;28;20038;-84
2022/06/03 12:52:29;;;;;;;3.22;2.40;;;;;;;19.81;49.16;101460.25;5016172;28;20041;-83
2022/06/03 12:54:58;;;;;;;2.47;2.22;;;;;;;19.87;49.05;101468.41;5033123;28;20025;-83
2022/06/03 12:57:47;;;;;;;3.92;2.50;;;;;;;19.97;49.25;101457.81;5027742;28;20438;-83